sensor_id;sensor_type;location;lat;lon;timestamp;P1;durP1;ratioP1;P2;durP2;ratioP2
83929;SDS011;73959;52.130;5.584;2024-02-15T00:00:39;31.85;;;15.63;;
83929;SDS011;73959;52.130;5.584;2024-02-15T00:03:05;31.23;;;15.95;;
83929;SDS011;73959;52.130;5.584;2024-02-15T00:05:32;29.80;;;15.73;;
83929;SDS011;73959;52.130;5.584;2024-02-15T00:08:01;36.88;;;17.38;;
83929;SDS011;73959;52.130;5.584;2024-02-15T00:10:27;33.42;;;15.93;;
83929;SDS011;73959;52.130;5.584;2024-02-15T00:12:53;34.88;;;16.90;;
83929;SDS011;73959;52.130;5.584;2024-02-15T00:15:19;28.83;;;16.77;;
83929;SDS011;73959;52.130;5.584;2024-02-15T00:17:45;31.58;;;15.95;;
83929;SDS011;73959;52.130;5.584;2024-02-15T00:20:14;29.98;;;16.35;;
83929;SDS011;73959;52.130;5.584;2024-02-15T00:22:41;31.67;;;16.25;;
83929;SDS011;73959;52.130;5.584;2024-02-15T00:25:07;24.27;;;15.07;;
83929;SDS011;73959;52.130;5.584;2024-02-15T00:27:34;27.30;;;15.40;;
83929;SDS011;73959;52.130;5.584;2024-02-15T00:30:00;26.30;;;14.00;;
83929;SDS011;73959;52.130;5.584;2024-02-15T00:32:26;27.20;;;14.68;;
83929;SDS011;73959;52.130;5.584;2024-02-15T00:34:52;28.35;;;15.23;;
83929;SDS011;73959;52.130;5.584;2024-02-15T00:37:18;25.92;;;14.13;;
83929;SDS011;73959;52.130;5.584;2024-02-15T00:39:44;26.15;;;14.93;;
83929;SDS011;73959;52.130;5.584;2024-02-15T00:42:10;24.73;;;13.38;;
83929;SDS011;73959;52.130;5.584;2024-02-15T00:44:36;27.40;;;14.15;;
83929;SDS011;73959;52.130;5.584;2024-02-15T00:47:03;23.90;;;14.02;;
83929;SDS011;73959;52.130;5.584;2024-02-15T00:49:30;24.50;;;14.25;;
83929;SDS011;73959;52.130;5.584;2024-02-15T00:51:57;25.58;;;13.10;;
83929;SDS011;73959;52.130;5.584;2024-02-15T00:54:22;26.15;;;13.10;;
83929;SDS011;73959;52.130;5.584;2024-02-15T00:56:48;27.27;;;13.18;;
83929;SDS011;73959;52.130;5.584;2024-02-15T00:59:14;25.30;;;12.82;;
83929;SDS011;73959;52.130;5.584;2024-02-15T01:01:40;22.08;;;12.32;;
83929;SDS011;73959;52.130;5.584;2024-02-15T01:04:06;18.92;;;10.98;;
83929;SDS011;73959;52.130;5.584;2024-02-15T01:06:32;23.02;;;13.32;;
83929;SDS011;73959;52.130;5.584;2024-02-15T01:08:59;26.00;;;13.80;;
83929;SDS011;73959;52.130;5.584;2024-02-15T01:11:26;25.88;;;14.77;;
83929;SDS011;73959;52.130;5.584;2024-02-15T01:14:00;28.35;;;14.65;;
83929;SDS011;73959;52.130;5.584;2024-02-15T01:16:26;25.88;;;15.13;;
83929;SDS011;73959;52.130;5.584;2024-02-15T01:18:52;26.15;;;15.27;;
83929;SDS011;73959;52.130;5.584;2024-02-15T01:21:18;28.67;;;16.20;;
83929;SDS011;73959;52.130;5.584;2024-02-15T01:23:44;26.50;;;17.10;;
83929;SDS011;73959;52.130;5.584;2024-02-15T01:26:11;27.33;;;17.20;;
83929;SDS011;73959;52.130;5.584;2024-02-15T01:28:37;28.58;;;17.77;;
83929;SDS011;73959;52.130;5.584;2024-02-15T01:31:03;38.70;;;20.05;;
83929;SDS011;73959;52.130;5.584;2024-02-15T01:33:31;35.55;;;21.80;;
83929;SDS011;73959;52.130;5.584;2024-02-15T01:35:57;46.50;;;24.02;;
83929;SDS011;73959;52.130;5.584;2024-02-15T01:38:23;40.97;;;23.15;;
83929;SDS011;73959;52.130;5.584;2024-02-15T01:40:49;43.28;;;25.52;;
83929;SDS011;73959;52.130;5.584;2024-02-15T01:43:15;42.63;;;26.10;;
83929;SDS011;73959;52.130;5.584;2024-02-15T01:45:41;49.55;;;27.67;;
83929;SDS011;73959;52.130;5.584;2024-02-15T01:48:07;49.15;;;26.85;;
83929;SDS011;73959;52.130;5.584;2024-02-15T01:50:35;42.47;;;26.98;;
83929;SDS011;73959;52.130;5.584;2024-02-15T01:53:02;48.55;;;27.02;;
83929;SDS011;73959;52.130;5.584;2024-02-15T01:55:29;40.47;;;25.15;;
83929;SDS011;73959;52.130;5.584;2024-02-15T01:57:55;47.88;;;28.08;;
83929;SDS011;73959;52.130;5.584;2024-02-15T02:00:21;46.33;;;27.25;;
83929;SDS011;73959;52.130;5.584;2024-02-15T02:02:47;45.78;;;27.10;;
83929;SDS011;73959;52.130;5.584;2024-02-15T02:05:13;42.03;;;25.80;;
83929;SDS011;73959;52.130;5.584;2024-02-15T02:07:39;41.65;;;25.77;;
83929;SDS011;73959;52.130;5.584;2024-02-15T02:10:06;42.63;;;25.15;;
83929;SDS011;73959;52.130;5.584;2024-02-15T02:12:34;42.83;;;24.52;;
83929;SDS011;73959;52.130;5.584;2024-02-15T02:15:00;44.58;;;27.15;;
83929;SDS011;73959;52.130;5.584;2024-02-15T02:17:26;42.30;;;24.63;;
83929;SDS011;73959;52.130;5.584;2024-02-15T02:19:51;42.22;;;24.70;;
83929;SDS011;73959;52.130;5.584;2024-02-15T02:22:18;42.45;;;25.15;;
83929;SDS011;73959;52.130;5.584;2024-02-15T02:27:20;38.50;;;24.13;;
83929;SDS011;73959;52.130;5.584;2024-02-15T02:29:46;41.22;;;24.75;;
83929;SDS011;73959;52.130;5.584;2024-02-15T02:32:12;42.42;;;24.83;;
83929;SDS011;73959;52.130;5.584;2024-02-15T02:34:38;43.50;;;24.50;;
83929;SDS011;73959;52.130;5.584;2024-02-15T02:37:09;49.83;;;24.92;;
83929;SDS011;73959;52.130;5.584;2024-02-15T02:39:35;38.47;;;23.25;;
83929;SDS011;73959;52.130;5.584;2024-02-15T02:42:01;39.03;;;21.88;;
83929;SDS011;73959;52.130;5.584;2024-02-15T02:44:27;40.63;;;22.35;;
83929;SDS011;73959;52.130;5.584;2024-02-15T02:46:53;35.45;;;21.83;;
83929;SDS011;73959;52.130;5.584;2024-02-15T02:49:19;36.72;;;22.48;;
83929;SDS011;73959;52.130;5.584;2024-02-15T02:51:45;41.00;;;21.80;;
83929;SDS011;73959;52.130;5.584;2024-02-15T02:54:11;37.95;;;22.05;;
83929;SDS011;73959;52.130;5.584;2024-02-15T02:56:40;42.28;;;22.20;;
83929;SDS011;73959;52.130;5.584;2024-02-15T02:59:08;36.08;;;21.10;;
83929;SDS011;73959;52.130;5.584;2024-02-15T03:01:34;38.25;;;21.23;;
83929;SDS011;73959;52.130;5.584;2024-02-15T03:04:00;40.00;;;21.60;;
83929;SDS011;73959;52.130;5.584;2024-02-15T03:06:26;34.97;;;19.52;;
83929;SDS011;73959;52.130;5.584;2024-02-15T03:08:52;35.35;;;19.90;;
83929;SDS011;73959;52.130;5.584;2024-02-15T03:11:22;34.63;;;20.05;;
83929;SDS011;73959;52.130;5.584;2024-02-15T03:13:48;31.77;;;19.13;;
83929;SDS011;73959;52.130;5.584;2024-02-15T03:16:14;36.97;;;20.40;;
83929;SDS011;73959;52.130;5.584;2024-02-15T03:18:41;32.55;;;18.77;;
83929;SDS011;73959;52.130;5.584;2024-02-15T03:21:08;35.40;;;19.17;;
83929;SDS011;73959;52.130;5.584;2024-02-15T03:23:35;36.45;;;19.25;;
83929;SDS011;73959;52.130;5.584;2024-02-15T03:26:02;36.33;;;19.42;;
83929;SDS011;73959;52.130;5.584;2024-02-15T03:28:30;37.08;;;17.92;;
83929;SDS011;73959;52.130;5.584;2024-02-15T03:30:57;31.08;;;17.35;;
83929;SDS011;73959;52.130;5.584;2024-02-15T03:33:25;32.22;;;17.55;;
83929;SDS011;73959;52.130;5.584;2024-02-15T03:35:57;33.95;;;17.73;;
83929;SDS011;73959;52.130;5.584;2024-02-15T03:38:24;30.70;;;17.63;;
83929;SDS011;73959;52.130;5.584;2024-02-15T03:40:51;29.15;;;17.13;;
83929;SDS011;73959;52.130;5.584;2024-02-15T03:43:19;35.65;;;17.95;;
83929;SDS011;73959;52.130;5.584;2024-02-15T03:45:45;33.10;;;17.50;;
83929;SDS011;73959;52.130;5.584;2024-02-15T03:48:10;37.90;;;17.58;;
83929;SDS011;73959;52.130;5.584;2024-02-15T03:50:37;35.70;;;17.63;;
83929;SDS011;73959;52.130;5.584;2024-02-15T03:53:03;32.08;;;17.05;;
83929;SDS011;73959;52.130;5.584;2024-02-15T03:55:29;29.25;;;16.90;;
83929;SDS011;73959;52.130;5.584;2024-02-15T03:57:55;34.03;;;17.98;;
83929;SDS011;73959;52.130;5.584;2024-02-15T04:00:22;29.55;;;16.20;;
83929;SDS011;73959;52.130;5.584;2024-02-15T04:02:49;31.75;;;15.95;;
83929;SDS011;73959;52.130;5.584;2024-02-15T04:05:16;26.77;;;15.77;;
83929;SDS011;73959;52.130;5.584;2024-02-15T04:07:43;30.15;;;15.52;;
83929;SDS011;73959;52.130;5.584;2024-02-15T04:10:09;35.65;;;15.40;;
83929;SDS011;73959;52.130;5.584;2024-02-15T04:12:36;32.25;;;15.75;;
83929;SDS011;73959;52.130;5.584;2024-02-15T04:15:02;27.98;;;15.30;;
83929;SDS011;73959;52.130;5.584;2024-02-15T04:17:36;25.65;;;14.35;;
83929;SDS011;73959;52.130;5.584;2024-02-15T04:20:02;26.17;;;14.82;;
83929;SDS011;73959;52.130;5.584;2024-02-15T04:22:29;28.75;;;14.77;;
83929;SDS011;73959;52.130;5.584;2024-02-15T04:25:01;29.35;;;15.18;;
83929;SDS011;73959;52.130;5.584;2024-02-15T04:27:27;27.23;;;14.93;;
83929;SDS011;73959;52.130;5.584;2024-02-15T04:29:53;28.10;;;14.57;;
83929;SDS011;73959;52.130;5.584;2024-02-15T04:32:20;24.58;;;14.00;;
83929;SDS011;73959;52.130;5.584;2024-02-15T04:34:46;26.95;;;14.10;;
83929;SDS011;73959;52.130;5.584;2024-02-15T04:37:13;30.40;;;13.63;;
83929;SDS011;73959;52.130;5.584;2024-02-15T04:39:39;29.88;;;14.55;;
83929;SDS011;73959;52.130;5.584;2024-02-15T04:42:05;30.10;;;14.32;;
83929;SDS011;73959;52.130;5.584;2024-02-15T04:44:36;26.48;;;14.00;;
83929;SDS011;73959;52.130;5.584;2024-02-15T04:47:02;32.05;;;13.93;;
83929;SDS011;73959;52.130;5.584;2024-02-15T04:49:29;24.23;;;13.95;;
83929;SDS011;73959;52.130;5.584;2024-02-15T04:51:55;30.70;;;13.65;;
83929;SDS011;73959;52.130;5.584;2024-02-15T04:54:22;27.90;;;13.80;;
83929;SDS011;73959;52.130;5.584;2024-02-15T04:56:48;27.67;;;14.15;;
83929;SDS011;73959;52.130;5.584;2024-02-15T04:59:18;29.52;;;13.68;;
83929;SDS011;73959;52.130;5.584;2024-02-15T05:01:46;25.67;;;13.07;;
83929;SDS011;73959;52.130;5.584;2024-02-15T05:04:12;30.83;;;13.85;;
83929;SDS011;73959;52.130;5.584;2024-02-15T05:06:38;26.63;;;13.02;;
83929;SDS011;73959;52.130;5.584;2024-02-15T05:09:05;27.70;;;12.93;;
83929;SDS011;73959;52.130;5.584;2024-02-15T05:11:38;25.00;;;11.93;;
83929;SDS011;73959;52.130;5.584;2024-02-15T05:14:06;26.20;;;12.73;;
83929;SDS011;73959;52.130;5.584;2024-02-15T05:16:35;27.42;;;12.60;;
83929;SDS011;73959;52.130;5.584;2024-02-15T05:19:07;25.13;;;12.23;;
83929;SDS011;73959;52.130;5.584;2024-02-15T05:21:36;24.38;;;12.60;;
83929;SDS011;73959;52.130;5.584;2024-02-15T05:24:02;22.67;;;12.32;;
83929;SDS011;73959;52.130;5.584;2024-02-15T05:26:28;29.63;;;13.73;;
83929;SDS011;73959;52.130;5.584;2024-02-15T05:28:54;22.73;;;12.30;;
83929;SDS011;73959;52.130;5.584;2024-02-15T05:31:21;22.55;;;11.57;;
83929;SDS011;73959;52.130;5.584;2024-02-15T05:33:50;22.42;;;11.48;;
83929;SDS011;73959;52.130;5.584;2024-02-15T05:36:16;26.83;;;12.27;;
83929;SDS011;73959;52.130;5.584;2024-02-15T05:38:46;23.33;;;12.80;;
83929;SDS011;73959;52.130;5.584;2024-02-15T05:41:13;20.48;;;11.20;;
83929;SDS011;73959;52.130;5.584;2024-02-15T05:43:39;22.35;;;11.90;;
83929;SDS011;73959;52.130;5.584;2024-02-15T05:46:06;23.27;;;11.90;;
83929;SDS011;73959;52.130;5.584;2024-02-15T05:48:32;24.45;;;12.57;;
83929;SDS011;73959;52.130;5.584;2024-02-15T05:51:02;20.63;;;11.90;;
83929;SDS011;73959;52.130;5.584;2024-02-15T05:53:28;22.83;;;12.25;;
83929;SDS011;73959;52.130;5.584;2024-02-15T05:55:57;21.90;;;13.25;;
83929;SDS011;73959;52.130;5.584;2024-02-15T05:58:24;23.40;;;12.45;;
83929;SDS011;73959;52.130;5.584;2024-02-15T06:00:50;23.52;;;12.35;;
83929;SDS011;73959;52.130;5.584;2024-02-15T06:03:16;27.15;;;13.10;;
83929;SDS011;73959;52.130;5.584;2024-02-15T06:05:43;26.83;;;13.15;;
83929;SDS011;73959;52.130;5.584;2024-02-15T06:08:10;20.33;;;11.73;;
83929;SDS011;73959;52.130;5.584;2024-02-15T06:10:38;23.27;;;12.40;;
83929;SDS011;73959;52.130;5.584;2024-02-15T06:13:07;19.77;;;12.20;;
83929;SDS011;73959;52.130;5.584;2024-02-15T06:15:34;22.60;;;12.75;;
83929;SDS011;73959;52.130;5.584;2024-02-15T06:18:01;17.88;;;11.63;;
83929;SDS011;73959;52.130;5.584;2024-02-15T06:20:28;20.92;;;11.60;;
83929;SDS011;73959;52.130;5.584;2024-02-15T06:22:55;20.05;;;11.90;;
83929;SDS011;73959;52.130;5.584;2024-02-15T06:25:21;22.10;;;11.63;;
83929;SDS011;73959;52.130;5.584;2024-02-15T06:27:48;17.55;;;11.45;;
83929;SDS011;73959;52.130;5.584;2024-02-15T06:30:16;28.42;;;13.50;;
83929;SDS011;73959;52.130;5.584;2024-02-15T06:33:01;20.02;;;12.23;;
83929;SDS011;73959;52.130;5.584;2024-02-15T06:35:45;21.70;;;12.90;;
83929;SDS011;73959;52.130;5.584;2024-02-15T06:38:30;24.30;;;11.80;;
83929;SDS011;73959;52.130;5.584;2024-02-15T06:41:22;20.98;;;11.82;;
83929;SDS011;73959;52.130;5.584;2024-02-15T06:43:48;21.45;;;12.27;;
83929;SDS011;73959;52.130;5.584;2024-02-15T06:46:14;18.13;;;11.25;;
83929;SDS011;73959;52.130;5.584;2024-02-15T06:48:44;20.05;;;12.52;;
83929;SDS011;73959;52.130;5.584;2024-02-15T06:51:13;18.30;;;11.73;;
83929;SDS011;73959;52.130;5.584;2024-02-15T06:53:40;21.48;;;11.80;;
83929;SDS011;73959;52.130;5.584;2024-02-15T06:56:08;16.17;;;10.73;;
83929;SDS011;73959;52.130;5.584;2024-02-15T06:58:35;18.30;;;12.10;;
83929;SDS011;73959;52.130;5.584;2024-02-15T07:01:01;21.00;;;12.55;;
83929;SDS011;73959;52.130;5.584;2024-02-15T07:03:28;22.85;;;14.27;;
83929;SDS011;73959;52.130;5.584;2024-02-15T07:06:00;25.35;;;13.82;;
83929;SDS011;73959;52.130;5.584;2024-02-15T07:08:27;25.70;;;14.15;;
83929;SDS011;73959;52.130;5.584;2024-02-15T07:10:54;23.15;;;13.77;;
83929;SDS011;73959;52.130;5.584;2024-02-15T07:13:20;24.73;;;14.82;;
83929;SDS011;73959;52.130;5.584;2024-02-15T07:15:47;22.23;;;15.23;;
83929;SDS011;73959;52.130;5.584;2024-02-15T07:18:13;19.88;;;13.98;;
83929;SDS011;73959;52.130;5.584;2024-02-15T07:20:41;29.02;;;14.52;;
83929;SDS011;73959;52.130;5.584;2024-02-15T07:23:07;24.40;;;14.38;;
83929;SDS011;73959;52.130;5.584;2024-02-15T07:25:33;23.77;;;13.73;;
83929;SDS011;73959;52.130;5.584;2024-02-15T07:27:59;20.60;;;13.95;;
83929;SDS011;73959;52.130;5.584;2024-02-15T07:30:25;18.70;;;12.88;;
83929;SDS011;73959;52.130;5.584;2024-02-15T07:32:51;21.52;;;13.73;;
83929;SDS011;73959;52.130;5.584;2024-02-15T07:35:17;20.88;;;13.85;;
83929;SDS011;73959;52.130;5.584;2024-02-15T07:37:52;21.73;;;14.38;;
83929;SDS011;73959;52.130;5.584;2024-02-15T07:40:20;23.25;;;13.93;;
83929;SDS011;73959;52.130;5.584;2024-02-15T07:42:47;22.50;;;14.68;;
83929;SDS011;73959;52.130;5.584;2024-02-15T07:45:13;21.27;;;14.60;;
83929;SDS011;73959;52.130;5.584;2024-02-15T07:47:39;20.52;;;14.25;;
83929;SDS011;73959;52.130;5.584;2024-02-15T07:50:05;23.02;;;13.23;;
83929;SDS011;73959;52.130;5.584;2024-02-15T07:52:34;22.48;;;13.75;;
83929;SDS011;73959;52.130;5.584;2024-02-15T07:55:00;20.60;;;12.85;;
83929;SDS011;73959;52.130;5.584;2024-02-15T07:57:33;19.10;;;12.82;;
83929;SDS011;73959;52.130;5.584;2024-02-15T07:59:59;18.02;;;12.88;;
83929;SDS011;73959;52.130;5.584;2024-02-15T08:02:25;20.38;;;13.45;;
83929;SDS011;73959;52.130;5.584;2024-02-15T08:04:53;19.63;;;12.95;;
83929;SDS011;73959;52.130;5.584;2024-02-15T08:07:19;19.10;;;12.20;;
83929;SDS011;73959;52.130;5.584;2024-02-15T08:09:45;20.13;;;12.52;;
83929;SDS011;73959;52.130;5.584;2024-02-15T08:12:12;17.48;;;12.00;;
83929;SDS011;73959;52.130;5.584;2024-02-15T08:14:37;17.80;;;12.02;;
83929;SDS011;73959;52.130;5.584;2024-02-15T08:17:05;19.75;;;11.15;;
83929;SDS011;73959;52.130;5.584;2024-02-15T08:19:33;16.42;;;11.18;;
83929;SDS011;73959;52.130;5.584;2024-02-15T08:22:03;16.58;;;11.30;;
83929;SDS011;73959;52.130;5.584;2024-02-15T08:24:30;17.92;;;11.30;;
83929;SDS011;73959;52.130;5.584;2024-02-15T08:26:56;14.10;;;11.25;;
83929;SDS011;73959;52.130;5.584;2024-02-15T08:29:24;14.93;;;9.95;;
83929;SDS011;73959;52.130;5.584;2024-02-15T08:31:50;17.02;;;11.27;;
83929;SDS011;73959;52.130;5.584;2024-02-15T08:34:16;15.55;;;9.95;;
83929;SDS011;73959;52.130;5.584;2024-02-15T08:36:43;12.23;;;9.65;;
83929;SDS011;73959;52.130;5.584;2024-02-15T08:39:09;13.10;;;10.05;;
83929;SDS011;73959;52.130;5.584;2024-02-15T08:41:37;13.40;;;9.40;;
83929;SDS011;73959;52.130;5.584;2024-02-15T08:44:03;12.20;;;9.48;;
83929;SDS011;73959;52.130;5.584;2024-02-15T08:46:34;14.50;;;9.93;;
83929;SDS011;73959;52.130;5.584;2024-02-15T08:49:01;10.98;;;8.90;;
83929;SDS011;73959;52.130;5.584;2024-02-15T08:51:28;14.18;;;9.15;;
83929;SDS011;73959;52.130;5.584;2024-02-15T08:53:55;10.35;;;7.80;;
83929;SDS011;73959;52.130;5.584;2024-02-15T08:56:21;9.10;;;6.90;;
83929;SDS011;73959;52.130;5.584;2024-02-15T08:58:48;9.15;;;6.75;;
83929;SDS011;73959;52.130;5.584;2024-02-15T09:01:14;9.95;;;6.50;;
83929;SDS011;73959;52.130;5.584;2024-02-15T09:03:40;9.98;;;6.10;;
83929;SDS011;73959;52.130;5.584;2024-02-15T09:06:10;8.15;;;6.30;;
83929;SDS011;73959;52.130;5.584;2024-02-15T09:08:36;7.55;;;5.53;;
83929;SDS011;73959;52.130;5.584;2024-02-15T09:11:03;6.50;;;5.80;;
83929;SDS011;73959;52.130;5.584;2024-02-15T09:13:29;7.90;;;5.20;;
83929;SDS011;73959;52.130;5.584;2024-02-15T09:15:55;7.28;;;5.38;;
83929;SDS011;73959;52.130;5.584;2024-02-15T09:18:20;6.55;;;5.00;;
83929;SDS011;73959;52.130;5.584;2024-02-15T09:20:47;6.93;;;5.25;;
83929;SDS011;73959;52.130;5.584;2024-02-15T09:23:17;7.72;;;5.65;;
83929;SDS011;73959;52.130;5.584;2024-02-15T09:25:43;7.30;;;5.70;;
83929;SDS011;73959;52.130;5.584;2024-02-15T09:28:09;7.25;;;5.22;;
83929;SDS011;73959;52.130;5.584;2024-02-15T09:30:35;9.10;;;5.63;;
83929;SDS011;73959;52.130;5.584;2024-02-15T09:33:01;9.80;;;5.65;;
83929;SDS011;73959;52.130;5.584;2024-02-15T09:35:31;7.20;;;5.20;;
83929;SDS011;73959;52.130;5.584;2024-02-15T09:37:57;7.03;;;4.55;;
83929;SDS011;73959;52.130;5.584;2024-02-15T09:40:23;5.50;;;4.32;;
83929;SDS011;73959;52.130;5.584;2024-02-15T09:42:54;6.50;;;4.82;;
83929;SDS011;73959;52.130;5.584;2024-02-15T09:45:20;9.48;;;5.40;;
83929;SDS011;73959;52.130;5.584;2024-02-15T09:47:49;9.55;;;5.13;;
83929;SDS011;73959;52.130;5.584;2024-02-15T09:50:17;8.30;;;5.38;;
83929;SDS011;73959;52.130;5.584;2024-02-15T09:52:50;8.57;;;5.30;;
83929;SDS011;73959;52.130;5.584;2024-02-15T09:55:16;10.30;;;5.20;;
83929;SDS011;73959;52.130;5.584;2024-02-15T09:57:43;10.65;;;5.32;;
83929;SDS011;73959;52.130;5.584;2024-02-15T10:00:09;9.70;;;5.50;;
83929;SDS011;73959;52.130;5.584;2024-02-15T10:02:42;8.65;;;6.18;;
83929;SDS011;73959;52.130;5.584;2024-02-15T10:05:09;10.38;;;6.75;;
83929;SDS011;73959;52.130;5.584;2024-02-15T10:07:37;10.73;;;6.78;;
83929;SDS011;73959;52.130;5.584;2024-02-15T10:10:13;11.30;;;6.20;;
83929;SDS011;73959;52.130;5.584;2024-02-15T10:12:41;10.98;;;6.32;;
83929;SDS011;73959;52.130;5.584;2024-02-15T10:15:08;12.75;;;6.50;;
83929;SDS011;73959;52.130;5.584;2024-02-15T10:17:35;10.23;;;6.03;;
83929;SDS011;73959;52.130;5.584;2024-02-15T10:20:05;9.50;;;5.88;;
83929;SDS011;73959;52.130;5.584;2024-02-15T10:22:31;19.38;;;6.93;;
83929;SDS011;73959;52.130;5.584;2024-02-15T10:25:10;11.52;;;6.00;;
83929;SDS011;73959;52.130;5.584;2024-02-15T10:27:36;13.20;;;6.20;;
83929;SDS011;73959;52.130;5.584;2024-02-15T10:30:16;11.75;;;5.95;;
83929;SDS011;73959;52.130;5.584;2024-02-15T10:32:42;11.32;;;6.65;;
83929;SDS011;73959;52.130;5.584;2024-02-15T10:35:09;15.00;;;6.25;;
83929;SDS011;73959;52.130;5.584;2024-02-15T10:37:40;11.23;;;6.28;;
83929;SDS011;73959;52.130;5.584;2024-02-15T10:40:07;10.50;;;6.20;;
83929;SDS011;73959;52.130;5.584;2024-02-15T10:42:34;12.00;;;6.32;;
83929;SDS011;73959;52.130;5.584;2024-02-15T10:45:04;9.38;;;5.85;;
83929;SDS011;73959;52.130;5.584;2024-02-15T10:47:31;11.93;;;6.22;;
83929;SDS011;73959;52.130;5.584;2024-02-15T10:49:57;16.00;;;6.28;;
83929;SDS011;73959;52.130;5.584;2024-02-15T10:52:24;16.50;;;6.30;;
83929;SDS011;73959;52.130;5.584;2024-02-15T10:57:28;10.73;;;5.65;;
83929;SDS011;73959;52.130;5.584;2024-02-15T10:59:55;13.80;;;6.85;;
83929;SDS011;73959;52.130;5.584;2024-02-15T11:02:38;17.38;;;6.85;;
83929;SDS011;73959;52.130;5.584;2024-02-15T11:05:07;11.05;;;6.35;;
83929;SDS011;73959;52.130;5.584;2024-02-15T11:07:35;11.15;;;7.10;;
83929;SDS011;73959;52.130;5.584;2024-02-15T11:10:02;11.60;;;5.90;;
83929;SDS011;73959;52.130;5.584;2024-02-15T11:12:31;10.52;;;6.85;;
83929;SDS011;73959;52.130;5.584;2024-02-15T11:14:57;15.45;;;7.22;;
83929;SDS011;73959;52.130;5.584;2024-02-15T11:20:08;18.95;;;7.50;;
83929;SDS011;73959;52.130;5.584;2024-02-15T11:22:36;17.67;;;7.32;;
83929;SDS011;73959;52.130;5.584;2024-02-15T11:25:02;14.05;;;7.53;;
83929;SDS011;73959;52.130;5.584;2024-02-15T11:27:34;14.27;;;7.85;;
83929;SDS011;73959;52.130;5.584;2024-02-15T11:30:02;17.10;;;7.78;;
83929;SDS011;73959;52.130;5.584;2024-02-15T11:35:09;14.07;;;6.97;;
83929;SDS011;73959;52.130;5.584;2024-02-15T11:40:15;13.38;;;8.13;;
83929;SDS011;73959;52.130;5.584;2024-02-15T11:42:42;13.10;;;7.57;;
83929;SDS011;73959;52.130;5.584;2024-02-15T11:45:08;14.45;;;7.35;;
83929;SDS011;73959;52.130;5.584;2024-02-15T11:47:37;18.00;;;7.97;;
83929;SDS011;73959;52.130;5.584;2024-02-15T11:50:05;10.40;;;6.78;;
83929;SDS011;73959;52.130;5.584;2024-02-15T11:52:33;10.10;;;6.70;;
83929;SDS011;73959;52.130;5.584;2024-02-15T11:55:06;10.90;;;7.30;;
83929;SDS011;73959;52.130;5.584;2024-02-15T11:57:36;12.52;;;7.65;;
83929;SDS011;73959;52.130;5.584;2024-02-15T12:00:18;14.85;;;7.55;;
83929;SDS011;73959;52.130;5.584;2024-02-15T12:03:03;14.63;;;7.45;;
83929;SDS011;73959;52.130;5.584;2024-02-15T12:05:49;10.43;;;6.65;;
83929;SDS011;73959;52.130;5.584;2024-02-15T12:08:34;14.02;;;7.90;;
83929;SDS011;73959;52.130;5.584;2024-02-15T12:11:19;15.77;;;8.35;;
83929;SDS011;73959;52.130;5.584;2024-02-15T12:14:03;14.57;;;7.72;;
83929;SDS011;73959;52.130;5.584;2024-02-15T12:16:58;16.17;;;7.65;;
83929;SDS011;73959;52.130;5.584;2024-02-15T12:19:42;13.77;;;8.05;;
83929;SDS011;73959;52.130;5.584;2024-02-15T12:22:08;15.43;;;8.73;;
83929;SDS011;73959;52.130;5.584;2024-02-15T12:24:35;12.02;;;7.60;;
83929;SDS011;73959;52.130;5.584;2024-02-15T12:27:01;16.85;;;8.95;;
83929;SDS011;73959;52.130;5.584;2024-02-15T12:29:30;13.45;;;8.30;;
83929;SDS011;73959;52.130;5.584;2024-02-15T12:31:57;15.63;;;8.82;;
83929;SDS011;73959;52.130;5.584;2024-02-15T12:34:24;13.13;;;8.05;;
83929;SDS011;73959;52.130;5.584;2024-02-15T12:36:50;13.35;;;8.48;;
83929;SDS011;73959;52.130;5.584;2024-02-15T12:39:23;11.70;;;7.95;;
83929;SDS011;73959;52.130;5.584;2024-02-15T12:41:49;13.85;;;7.70;;
83929;SDS011;73959;52.130;5.584;2024-02-15T12:44:16;12.82;;;8.27;;
83929;SDS011;73959;52.130;5.584;2024-02-15T12:46:45;13.48;;;8.18;;
83929;SDS011;73959;52.130;5.584;2024-02-15T12:51:41;14.43;;;7.70;;
83929;SDS011;73959;52.130;5.584;2024-02-15T12:54:18;14.55;;;7.25;;
83929;SDS011;73959;52.130;5.584;2024-02-15T12:56:46;10.15;;;7.28;;
83929;SDS011;73959;52.130;5.584;2024-02-15T12:59:13;16.55;;;7.25;;
83929;SDS011;73959;52.130;5.584;2024-02-15T13:01:39;12.20;;;6.93;;
83929;SDS011;73959;52.130;5.584;2024-02-15T13:04:05;17.73;;;6.93;;
83929;SDS011;73959;52.130;5.584;2024-02-15T13:06:33;8.57;;;5.90;;
83929;SDS011;73959;52.130;5.584;2024-02-15T13:09:01;9.75;;;5.88;;
83929;SDS011;73959;52.130;5.584;2024-02-15T13:11:30;9.07;;;5.70;;
83929;SDS011;73959;52.130;5.584;2024-02-15T13:13:58;9.30;;;5.72;;
83929;SDS011;73959;52.130;5.584;2024-02-15T13:16:24;11.60;;;5.60;;
83929;SDS011;73959;52.130;5.584;2024-02-15T13:18:53;12.93;;;5.53;;
83929;SDS011;73959;52.130;5.584;2024-02-15T13:21:19;9.30;;;5.30;;
83929;SDS011;73959;52.130;5.584;2024-02-15T13:23:45;9.52;;;5.10;;
83929;SDS011;73959;52.130;5.584;2024-02-15T13:26:13;8.55;;;5.13;;
83929;SDS011;73959;52.130;5.584;2024-02-15T13:28:39;10.82;;;5.25;;
83929;SDS011;73959;52.130;5.584;2024-02-15T13:31:06;10.45;;;5.43;;
83929;SDS011;73959;52.130;5.584;2024-02-15T13:33:32;12.45;;;4.82;;
83929;SDS011;73959;52.130;5.584;2024-02-15T13:35:58;13.80;;;5.65;;
83929;SDS011;73959;52.130;5.584;2024-02-15T13:38:24;9.38;;;5.43;;
83929;SDS011;73959;52.130;5.584;2024-02-15T13:40:51;12.40;;;5.60;;
83929;SDS011;73959;52.130;5.584;2024-02-15T13:43:20;9.38;;;4.88;;
83929;SDS011;73959;52.130;5.584;2024-02-15T13:45:45;13.35;;;5.30;;
83929;SDS011;73959;52.130;5.584;2024-02-15T13:48:13;12.52;;;5.57;;
83929;SDS011;73959;52.130;5.584;2024-02-15T13:50:41;11.15;;;5.63;;
83929;SDS011;73959;52.130;5.584;2024-02-15T13:53:07;8.65;;;5.35;;
83929;SDS011;73959;52.130;5.584;2024-02-15T13:55:38;9.65;;;4.72;;
83929;SDS011;73959;52.130;5.584;2024-02-15T13:58:04;12.60;;;4.10;;
83929;SDS011;73959;52.130;5.584;2024-02-15T14:00:33;13.13;;;4.22;;
83929;SDS011;73959;52.130;5.584;2024-02-15T14:02:59;7.40;;;4.05;;
83929;SDS011;73959;52.130;5.584;2024-02-15T14:05:27;8.27;;;4.70;;
83929;SDS011;73959;52.130;5.584;2024-02-15T14:10:22;7.75;;;4.45;;
83929;SDS011;73959;52.130;5.584;2024-02-15T14:12:49;7.22;;;4.70;;
83929;SDS011;73959;52.130;5.584;2024-02-15T14:15:17;11.07;;;4.57;;
83929;SDS011;73959;52.130;5.584;2024-02-15T14:17:44;7.97;;;4.55;;
83929;SDS011;73959;52.130;5.584;2024-02-15T14:20:10;6.50;;;4.28;;
83929;SDS011;73959;52.130;5.584;2024-02-15T14:22:40;8.00;;;4.28;;
83929;SDS011;73959;52.130;5.584;2024-02-15T14:25:06;6.40;;;4.32;;
83929;SDS011;73959;52.130;5.584;2024-02-15T14:27:33;7.30;;;4.18;;
83929;SDS011;73959;52.130;5.584;2024-02-15T14:29:59;8.05;;;4.60;;
83929;SDS011;73959;52.130;5.584;2024-02-15T14:32:45;5.95;;;4.13;;
83929;SDS011;73959;52.130;5.584;2024-02-15T14:35:30;7.55;;;4.50;;
83929;SDS011;73959;52.130;5.584;2024-02-15T14:37:59;12.07;;;5.07;;
83929;SDS011;73959;52.130;5.584;2024-02-15T14:40:27;11.15;;;4.82;;
83929;SDS011;73959;52.130;5.584;2024-02-15T14:42:54;7.63;;;4.72;;
83929;SDS011;73959;52.130;5.584;2024-02-15T14:45:20;6.78;;;4.80;;
83929;SDS011;73959;52.130;5.584;2024-02-15T14:47:47;9.40;;;5.20;;
83929;SDS011;73959;52.130;5.584;2024-02-15T14:50:13;7.28;;;4.22;;